Flight Track Log - Related Links

Times and Time Zones

All times are in EDT time to prevent confusion due to time zone crossing. See the N424AG flight status page for this flight to view local times or setup timezone preferences in your user account.


Time Position Orientation Groundspeed Altitude Reporting Facility
EDT Latitude Longitude Course Direction KTS MPH feet Rate Location/Type
Thu 06:02:07 PM 41.7006 -91.5492 37° Northeast 118 136 3,400  Level Chicago Center
Thu 06:03:09 PM 41.7267 -91.5247 35° Northeast 118 136 4,000 624 Climbing Chicago Center
Thu 06:04:12 PM 41.7522 -91.4986 37° Northeast 117 135 4,700 624 Climbing Chicago Center
Thu 06:05:14 PM 41.7781 -91.4717 38° Northeast 117 135 5,300 581 Climbing Chicago Center
Thu 06:06:00 PM 41.8403 -91.3264 37° Northeast  Level FlightAware Approximate
Thu 06:06:16 PM 41.8039 -91.4458 37° Northeast 118 136 5,900  Level Chicago Center
Thu 06:07:00 PM 41.8748 -91.2919 37° Northeast  Level FlightAware Approximate
Thu 06:07:18 PM 41.8344 -91.4169 35° Northeast 115 132 6,700  Level Chicago Center
Thu 06:08:20 PM 41.8619 -91.3886 37° Northeast 120 138 7,000 145 Climbing Chicago Center
Thu 06:09:22 PM 41.8944 -91.3567 36° Northeast 135 155 7,000  Level Chicago Center
Thu 06:10:24 PM 41.9292 -91.3200 38° Northeast 153 176 7,000 435 Level Chicago Center
Thu 06:11:26 PM 41.9642 -91.2833 38° Northeast 142 163 7,900 629 Climbing Chicago Center
Thu 06:12:28 PM 41.9889 -91.2583 37° Northeast 121 139 8,300 484 Climbing Chicago Center
Thu 06:13:30 PM 42.0136 -91.2333 37° Northeast 115 132 8,900 336 Climbing Chicago Center
Thu 06:14:33 PM 42.0394 -91.2067 37° Northeast 116 133 9,000 48 Climbing Chicago Center
Thu 06:15:35 PM 42.0711 -91.1747 37° Northeast 131 151 9,000  Level Chicago Center
Thu 06:16:37 PM 42.1103 -91.1331 38° Northeast 145 167 9,000  Level Chicago Center
Thu 06:17:39 PM 42.1422 -91.1003 37° Northeast 147 169 9,000  Level Chicago Center
Thu 06:18:41 PM 42.1744 -91.0669 37° Northeast 147 169 9,000  Level Chicago Center
Thu 06:19:43 PM 42.2067 -91.0331 38° Northeast 148 170 9,000  Level Chicago Center
Thu 06:20:45 PM 42.2383 -91.0008 37° Northeast 146 168 9,000  Level Chicago Center
Thu 06:21:47 PM 42.2758 -90.9625 37° Northeast 145 167 9,000  Level Chicago Center
Thu 06:22:50 PM 42.3075 -90.9300 37° Northeast 145 167 9,000  Level Chicago Center
Thu 06:23:52 PM 42.3397 -90.8958 38° Northeast 147 169 9,000  Level Chicago Center
Thu 06:24:54 PM 42.3722 -90.8622 37° Northeast 148 170 9,000  Level Chicago Center
Thu 06:25:56 PM 42.4103 -90.8222 38° Northeast 146 168 9,000  Level Chicago Center
Thu 06:26:58 PM 42.4436 -90.7869 38° Northeast 152 175 9,000  Level Chicago Center
Thu 06:28:00 PM 42.4764 -90.7539 37° Northeast 151 174 9,000  Level Chicago Center
Thu 06:29:02 PM 42.5083 -90.7206 38° Northeast 148 170 9,000  Level Chicago Center
Thu 06:30:04 PM 42.5406 -90.6853 39° Northeast 150 173 9,000  Level Chicago Center
Thu 06:31:06 PM 42.5794 -90.6447 38° Northeast 148 170 9,000  Level Chicago Center
Thu 06:32:09 PM 42.6133 -90.6097 37° Northeast 152 175 9,000  Level Chicago Center
Thu 06:33:11 PM 42.6450 -90.5761 38° Northeast 148 170 9,000  Level Chicago Center
Thu 06:34:13 PM 42.6761 -90.5414 39° Northeast 147 169 9,000  Level Chicago Center
Thu 06:35:15 PM 42.7156 -90.5017 36° Northeast 148 170 9,000  Level Chicago Center
Thu 06:36:17 PM 42.7478 -90.4667 39° Northeast 149 171 9,000  Level Chicago Center
Thu 06:37:19 PM 42.7817 -90.4319 37° Northeast 153 176 9,000  Level Chicago Center
Thu 06:38:21 PM 42.8131 -90.3983 38° Northeast 148 170 9,000  Level Chicago Center
Thu 06:39:23 PM 42.8456 -90.3633 38° Northeast 149 171 9,000  Level Chicago Center
Thu 06:40:25 PM 42.8853 -90.3211 38° Northeast 152 175 9,000  Level Chicago Center
Thu 06:41:28 PM 42.9192 -90.2867 37° Northeast 152 175 9,000  Level Chicago Center
Thu 06:42:30 PM 42.9503 -90.2511 40° Northeast 149 171 9,000  Level Chicago Center
Thu 06:43:32 PM 42.9831 -90.2164 38° Northeast 150 173 9,000  Level Chicago Center
Thu 06:44:34 PM 43.0153 -90.1819 38° Northeast 148 170 9,000  Level Chicago Center
Thu 06:45:36 PM 43.0539 -90.1411 38° Northeast 148 170 9,000  Level Chicago Center
Thu 06:46:38 PM 43.0858 -90.1083 37° Northeast 146 168 9,000  Level Chicago Center
Thu 06:47:40 PM 43.1161 -90.0731 40° Northeast 145 167 9,000  Level Chicago Center
Thu 06:48:42 PM 43.1497 -90.0375 38° Northeast 142 163 9,000  Level Chicago Center
Thu 06:49:44 PM 43.1806 -90.0039 38° Northeast 141 162 9,000  Level Chicago Center
Thu 06:50:47 PM 43.2119 -89.9694 39° Northeast 143 165 9,000  Level Chicago Center
Thu 06:51:49 PM 43.2503 -89.9292 37° Northeast 146 168 9,000  Level Chicago Center
Thu 06:52:51 PM 43.2806 -89.8953 39° Northeast 143 165 9,000  Level Chicago Center
Thu 06:53:53 PM 43.3131 -89.8600 38° Northeast 145 167 9,000  Level Chicago Center
Thu 06:54:55 PM 43.3439 -89.8253 39° Northeast 145 167 9,000  Level Chicago Center
Thu 06:55:57 PM 43.3767 -89.7917 37° Northeast 145 167 9,000  Level Chicago Center
Thu 06:56:59 PM 43.4078 -89.7569 39° Northeast 145 167 9,000  Level Chicago Center
Thu 06:58:01 PM 43.4439 -89.7161 39° Northeast 144 166 9,000  Level Chicago Center
Thu 06:59:03 PM 43.4761 -89.6808 38° Northeast 146 168 9,000  Level Chicago Center
Thu 07:00:05 PM 43.5078 -89.6481 37° Northeast 144 166 9,000  Level Chicago Center
Thu 07:01:08 PM 43.5378 -89.6144 39° Northeast 141 162 9,000  Level Chicago Center
Thu 07:02:10 PM 43.5694 -89.5800 38° Northeast 143 165 9,000  Level Chicago Center
Thu 07:03:12 PM 43.6058 -89.5397 39° Northeast 142 163 9,000  Level Chicago Center
Thu 07:04:14 PM 43.6369 -89.5058 38° Northeast 142 163 9,000  Level Chicago Center
Thu 07:05:16 PM 43.6678 -89.4711 39° Northeast 142 163 9,000  Level Chicago Center
Thu 07:06:18 PM 43.6989 -89.4369 38° Northeast 143 165 9,000  Level Chicago Center
Thu 07:07:20 PM 43.7314 -89.4031 37° Northeast 144 166 9,000  Level Chicago Center
Thu 07:08:22 PM 43.7669 -89.3611 40° Northeast 144 166 9,000  Level Chicago Center
Thu 07:09:25 PM 43.7978 -89.3275 38° Northeast 142 163 9,000  Level Chicago Center
Thu 07:10:27 PM 43.8292 -89.2922 39° Northeast 144 166 9,000  Level Chicago Center
Thu 07:11:29 PM 43.8597 -89.2583 39° Northeast 142 163 9,000  Level Chicago Center
Thu 07:12:31 PM 43.8911 -89.2250 37° Northeast 141 162 9,000  Level Chicago Center
Thu 07:13:33 PM 43.9219 -89.1894 40° Northeast 143 165 9,000  Level Chicago Center
Thu 07:14:35 PM 43.9583 -89.1492 39° Northeast 143 165 9,000  Level Chicago Center
Thu 07:15:37 PM 43.9883 -89.1147 40° Northeast 142 163 9,000  Level Chicago Center
Thu 07:16:39 PM 44.0194 -89.0800 39° Northeast 142 163 9,000  Level Chicago Center
Thu 07:17:41 PM 44.0497 -89.0469 38° Northeast 141 162 9,000  Level Chicago Center
Thu 07:18:44 PM 44.0800 -89.0114 40° Northeast 141 162 9,000  Level Chicago Center
Thu 07:19:46 PM 44.1169 -88.9714 38° Northeast 143 165 9,000  Level Chicago Center
Thu 07:20:10 PM 44.1264 -88.9578 46° Northeast 140 161 9,000  Level Minneapolis Center
Thu 07:21:12 PM 44.1578 -88.9233 38° Northeast 143 165 9,000  Level Minneapolis Center
Thu 07:22:14 PM 44.1881 -88.8881 40° Northeast 143 165 9,000  Level Minneapolis Center
Thu 07:23:16 PM 44.2178 -88.8528 40° Northeast 141 162 9,000  Level Minneapolis Center
Thu 07:24:18 PM 44.2536 -88.8128 39° Northeast 141 162 9,000  Level Minneapolis Center
Thu 07:25:20 PM 44.2844 -88.7772 40° Northeast 142 163 9,000  Level Minneapolis Center
Thu 07:26:22 PM 44.3156 -88.7428 38° Northeast 142 163 9,000  Level Minneapolis Center
Thu 07:27:24 PM 44.3458 -88.7075 40° Northeast 142 163 9,000  Level Minneapolis Center
Thu 07:28:26 PM 44.3756 -88.6756 38° Northeast 139 160 9,000  Level Minneapolis Center
Thu 07:29:28 PM 44.4103 -88.6361 39° Northeast 137 158 9,000  Level Minneapolis Center
Thu 07:30:31 PM 44.4419 -88.6006 39° Northeast 142 163 9,000  Level Minneapolis Center
Thu 07:31:33 PM 44.4708 -88.5675 39° Northeast 138 159 9,000  Level Minneapolis Center
Thu 07:32:35 PM 44.5014 -88.5333 39° Northeast 139 160 9,000  Level Minneapolis Center
Thu 07:33:37 PM 44.5308 -88.4983 40° Northeast 139 160 9,000  Level Minneapolis Center
Thu 07:34:39 PM 44.5661 -88.4586 39° Northeast 138 159 9,000  Level Minneapolis Center
Thu 07:35:41 PM 44.5964 -88.4242 39° Northeast 139 160 9,000  Level Minneapolis Center
Thu 07:36:43 PM 44.6261 -88.3894 40° Northeast 139 160 9,000  Level Minneapolis Center
Thu 07:37:45 PM 44.6564 -88.3542 40° Northeast 139 160 9,000  Level Minneapolis Center
Thu 07:38:47 PM 44.6869 -88.3197 39° Northeast 141 162 9,000  Level Minneapolis Center
Thu 07:39:49 PM 44.7172 -88.2850 39° Northeast 140 161 9,000  Level Minneapolis Center
Thu 07:40:51 PM 44.7519 -88.2442 40° Northeast 140 161 9,000  Level Minneapolis Center
Thu 07:41:53 PM 44.7808 -88.2094 40° Northeast 140 161 9,000  Level Minneapolis Center
Thu 07:42:56 PM 44.8111 -88.1744 39° Northeast 141 162 9,000  Level Minneapolis Center
Thu 07:43:58 PM 44.8414 -88.1406 38° Northeast 138 159 9,000  Level Minneapolis Center
Thu 07:45:00 PM 44.8717 -88.1058 39° Northeast 140 161 9,000  Level Minneapolis Center
Thu 07:46:02 PM 44.9067 -88.0628 41° Northeast 139 160 9,000  Level Minneapolis Center
Thu 07:47:04 PM 44.9367 -88.0286 39° Northeast 138 159 9,000  Level Minneapolis Center
Thu 07:48:06 PM 44.9675 -87.9942 38° Northeast 140 161 9,000  Level Minneapolis Center
Thu 07:49:08 PM 44.9969 -87.9594 40° Northeast 139 160 9,000  Level Minneapolis Center
Thu 07:50:10 PM 45.0269 -87.9239 40° Northeast 140 161 9,000 -48 Level Minneapolis Center
Thu 07:51:12 PM 45.0567 -87.8894 39° Northeast 139 160 8,900 -48 Descending Minneapolis Center
Thu 07:52:14 PM 45.0919 -87.8475 40° Northeast 137 158 8,900  Level Minneapolis Center
Thu 07:53:16 PM 45.1217 -87.8128 39° Northeast 139 160 8,900  Level Minneapolis Center
Thu 07:54:18 PM 45.1522 -87.7764 40° Northeast 143 165 8,900 -240 Level Minneapolis Center
Thu 07:55:21 PM 45.1836 -87.7394 40° Northeast 148 170 8,400 -480 Descending Minneapolis Center
Thu 07:56:23 PM 45.2183 -87.6981 40° Northeast 160 184 7,900 -290 Descending Minneapolis Center
Thu 07:57:25 PM 45.2511 -87.6600 39° Northeast 155 178 7,800 -339 Descending Minneapolis Center
Thu 07:58:27 PM 45.2892 -87.6131 41° Northeast 151 174 7,200 -581 Descending Minneapolis Center
Thu 08:00:00 PM 45.3317 -87.5478 38° Northeast  Level FlightAware Approximate
Thu 08:07:00 PM 45.5393 -87.2940 35° Northeast  Level FlightAware Approximate
Thu 08:08:00 PM 45.5702 -87.2581 41° Northeast  Level FlightAware Approximate
Thu 08:09:00 PM 45.6002 -87.2206 41° Northeast  Level FlightAware Approximate
Thu 08:10:00 PM 45.6301 -87.1832 41° Northeast  Level FlightAware Approximate
Thu 08:11:00 PM 45.6601 -87.1457 41° Northeast  Level FlightAware Approximate
Thu 08:12:00 PM 45.6908 -87.1093 35° Northeast  Level FlightAware Approximate
Thu 08:13:00 PM 45.7167 -87.0833 35° Northeast  Level FlightAware Approximate
Thu 08:14:00 PM 45.7227 -87.0937 35° Northeast  Level Estimated
Thu 08:15:00 PM 45.7227 -87.0937 35° Northeast  Level Estimated
Thu 08:16:00 PM 45.7227 -87.0937 35° Northeast  Level Estimated
Thu 08:17:00 PM 45.7227 -87.0937 35° Northeast  Level Estimated
Thu 08:18:00 PM 45.7227 -87.0937 35° Northeast  Level Estimated
Thu 08:19:00 PM 45.7227 -87.0937 35° Northeast  Level Estimated
Thu 08:20:00 PM 45.7227 -87.0937 35° Northeast  Level Estimated
Thu 08:21:00 PM 45.7227 -87.0937 35° Northeast  Level Estimated
Thu 08:22:00 PM 45.7227 -87.0937 35° Northeast  Level Estimated
Thu 08:23:00 PM 45.7227 -87.0937 35° Northeast  Level Estimated
Thu 08:24:00 PM 45.7227 -87.0937 35° Northeast  Level Estimated
Thu 08:25:00 PM 45.7227 -87.0937 35° Northeast  Level Estimated
Thu 08:26:00 PM 45.7227 -87.0937 35° Northeast  Level Estimated
Thu 08:27:00 PM 45.7227 -87.0937 35° Northeast  Level Estimated

Login

Don't have an account? Register now (free) for customized features, flight alerts, and more!